Time;durP1;ratioP1;P1;durP2;ratioP2;P2;SDS_P1;SDS_P2;PMS_P1;PMS_P2;Temp;Humidity;BMP_temperature;BMP_pressure;BME280_temperature;BME280_humidity;BME280_pressure;Samples;Min_cycle;Max_cycle;Signal;HPM_P1;HPM_P2
2022/04/09 00:02:21;;;;;;;2.45;1.95;;;6.70;95.70;;;;;;5051269;28;20032;-79
2022/04/09 00:04:47;;;;;;;3.00;2.30;;;6.70;95.80;;;;;;5055157;28;20024;-79
2022/04/09 00:07:14;;;;;;;5.53;1.70;;;6.70;95.80;;;;;;5067439;28;20438;-82
2022/04/09 00:09:39;;;;;;;3.78;2.20;;;6.70;95.70;;;;;;5068860;28;20534;-81
2022/04/09 00:12:05;;;;;;;3.40;2.05;;;6.80;95.60;;;;;;5068839;28;20060;-79
2022/04/09 00:14:30;;;;;;;3.03;1.88;;;6.80;95.60;;;;;;5069191;28;20025;-80
2022/04/09 00:16:56;;;;;;;4.75;2.30;;;6.80;95.50;;;;;;5071177;28;20028;-80
2022/04/09 00:19:21;;;;;;;3.17;1.85;;;6.90;95.50;;;;;;5049996;28;20036;-80
2022/04/09 00:21:47;;;;;;;2.03;1.48;;;6.90;95.50;;;;;;5068390;28;20043;-78
2022/04/09 00:24:13;;;;;;;3.25;1.90;;;6.90;95.40;;;;;;5068478;28;20024;-79
2022/04/09 00:26:39;;;;;;;2.85;2.35;;;6.90;95.40;;;;;;5050751;28;20583;-79
2022/04/09 00:29:05;;;;;;;3.90;2.40;;;6.90;95.40;;;;;;5050971;28;20519;-82
2022/04/09 00:31:30;;;;;;;2.80;2.25;;;6.90;95.30;;;;;;5050988;28;20041;-79
2022/04/09 00:33:56;;;;;;;3.00;2.30;;;6.90;95.30;;;;;;5068786;28;20016;-79
2022/04/09 00:36:21;;;;;;;6.70;2.58;;;6.80;95.40;;;;;;5076595;28;20033;-81
2022/04/09 00:38:47;;;;;;;2.70;2.20;;;6.80;95.40;;;;;;5067339;28;20028;-80
2022/04/09 00:41:12;;;;;;;5.32;3.15;;;6.80;95.40;;;;;;5068539;28;20055;-80
2022/04/09 00:43:40;;;;;;;3.92;2.50;;;6.80;95.40;;;;;;5052582;28;20142;-82
2022/04/09 00:46:05;;;;;;;2.85;2.25;;;6.80;95.40;;;;;;5071226;28;20044;-83
2022/04/09 00:48:31;;;;;;;4.20;2.40;;;6.80;95.50;;;;;;5073046;28;20397;-79
2022/04/09 00:50:56;;;;;;;3.05;2.50;;;6.80;95.60;;;;;;5072412;28;20115;-79
2022/04/09 00:53:24;;;;;;;3.13;2.30;;;6.70;95.80;;;;;;5053880;28;20071;-80
2022/04/09 00:58:38;;;;;;;3.17;2.25;;;6.80;95.50;;;;;;5072608;28;20479;-80
2022/04/09 01:01:04;;;;;;;3.40;2.47;;;6.80;95.50;;;;;;5071826;28;20489;-80
2022/04/09 01:03:33;;;;;;;4.18;2.85;;;6.80;95.70;;;;;;5074014;28;20463;-79
2022/04/09 01:05:59;;;;;;;3.42;2.40;;;6.80;95.60;;;;;;5081088;28;20376;-78
2022/04/09 01:08:25;;;;;;;3.70;2.58;;;6.80;95.70;;;;;;5054149;28;20120;-79
2022/04/09 01:10:50;;;;;;;4.13;3.22;;;6.80;95.80;;;;;;5053172;28;20036;-79
2022/04/09 01:13:17;;;;;;;3.45;2.67;;;6.80;95.70;;;;;;5072241;28;20098;-79
2022/04/09 01:15:43;;;;;;;4.05;2.60;;;6.80;95.70;;;;;;5070458;28;20400;-80
2022/04/09 01:18:09;;;;;;;5.18;3.10;;;6.80;95.50;;;;;;5071197;28;20028;-81
2022/04/09 01:20:35;;;;;;;4.03;2.60;;;6.80;95.80;;;;;;5071350;28;20111;-80
2022/04/09 01:23:00;;;;;;;3.78;3.03;;;6.90;95.60;;;;;;5053793;28;20115;-80
2022/04/09 01:25:26;;;;;;;4.65;3.13;;;6.90;95.60;;;;;;5053028;28;20053;-80
2022/04/09 01:27:51;;;;;;;5.78;3.72;;;6.90;95.50;;;;;;5072128;28;20035;-79
2022/04/09 01:30:17;;;;;;;6.05;2.97;;;6.90;95.40;;;;;;5070959;28;20548;-80
2022/04/09 01:32:43;;;;;;;5.03;2.97;;;6.90;95.60;;;;;;5052834;28;20028;-79
2022/04/09 01:35:09;;;;;;;3.70;3.30;;;6.90;95.50;;;;;;5081181;28;20021;-80
2022/04/09 01:37:35;;;;;;;7.05;3.25;;;6.90;95.50;;;;;;5069836;28;20590;-79
2022/04/09 01:40:00;;;;;;;4.63;3.63;;;6.80;95.30;;;;;;5071774;28;20032;-79
2022/04/09 01:42:26;;;;;;;4.78;3.50;;;6.70;95.50;;;;;;5071022;28;20032;-79
2022/04/09 01:44:55;;;;;;;3.40;3.10;;;6.70;95.50;;;;;;5053433;28;20559;-79
2022/04/09 01:47:21;;;;;;;5.82;3.85;;;6.60;95.60;;;;;;5071243;28;20020;-79
2022/04/09 01:49:47;;;;;;;6.13;4.38;;;6.60;95.60;;;;;;5055430;28;20046;-80
2022/04/09 01:52:13;;;;;;;5.07;3.95;;;6.70;95.50;;;;;;5072363;28;20033;-79
2022/04/09 01:54:38;;;;;;;4.60;3.75;;;6.60;95.40;;;;;;5071277;28;20150;-80
2022/04/09 01:57:04;;;;;;;5.70;3.67;;;6.50;95.30;;;;;;5072217;28;20020;-79
2022/04/09 01:59:29;;;;;;;5.55;4.15;;;6.60;95.40;;;;;;5071964;28;20036;-79
2022/04/09 02:01:55;;;;;;;9.00;4.63;;;6.60;95.30;;;;;;5072092;28;20044;-81
2022/04/09 02:04:20;;;;;;;4.72;3.95;;;6.50;95.10;;;;;;5079114;28;20052;-80
2022/04/09 02:06:47;;;;;;;6.13;4.20;;;6.50;95.20;;;;;;5079754;28;20052;-80
2022/04/09 02:09:13;;;;;;;5.32;3.90;;;6.50;95.00;;;;;;5079294;28;20040;-79
2022/04/09 02:11:39;;;;;;;9.95;4.22;;;6.50;94.90;;;;;;5079137;28;20027;-82
2022/04/09 02:14:07;;;;;;;7.40;3.63;;;6.40;94.60;;;;;;5075702;28;20052;-80
2022/04/09 02:16:32;;;;;;;5.93;3.05;;;6.40;94.40;;;;;;5068642;28;20031;-79
2022/04/09 02:18:58;;;;;;;6.43;3.08;;;6.30;94.60;;;;;;5070770;28;20024;-79
2022/04/09 02:21:23;;;;;;;9.00;3.10;;;6.30;94.50;;;;;;5069891;28;20377;-84
2022/04/09 02:23:49;;;;;;;5.72;2.42;;;6.30;94.50;;;;;;5070680;28;20029;-82
2022/04/09 02:26:15;;;;;;;6.78;3.10;;;6.20;94.50;;;;;;5069801;28;20032;-81
2022/04/09 02:28:41;;;;;;;4.43;2.00;;;6.20;94.50;;;;;;5070010;28;20469;-81
2022/04/09 02:31:07;;;;;;;3.10;1.88;;;6.10;94.60;;;;;;5069822;28;20051;-79
2022/04/09 02:33:32;;;;;;;7.18;2.65;;;6.10;94.60;;;;;;5070084;28;20055;-79
2022/04/09 02:35:58;;;;;;;6.35;2.33;;;6.10;94.50;;;;;;5073694;28;20386;-83
2022/04/09 02:38:24;;;;;;;5.03;2.13;;;6.10;94.60;;;;;;5075926;28;20064;-81
2022/04/09 02:40:49;;;;;;;4.72;2.22;;;6.20;94.60;;;;;;5069929;28;20037;-80
2022/04/09 02:43:15;;;;;;;5.65;2.42;;;6.10;94.60;;;;;;5070308;28;20073;-80
2022/04/09 02:45:41;;;;;;;8.40;2.55;;;6.10;94.70;;;;;;5068399;28;20487;-82
2022/04/09 02:48:06;;;;;;;10.32;2.55;;;6.10;94.80;;;;;;5070732;28;20016;-79
2022/04/09 02:50:32;;;;;;;3.78;2.15;;;6.00;94.80;;;;;;5052030;28;20119;-80
2022/04/09 02:52:58;;;;;;;2.95;1.80;;;6.00;94.70;;;;;;5071080;28;20027;-80
2022/04/09 02:55:23;;;;;;;3.60;1.70;;;6.00;94.70;;;;;;5070391;28;20024;-82
2022/04/09 02:57:50;;;;;;;6.80;2.40;;;6.00;94.90;;;;;;5053422;28;20380;-82
2022/04/09 03:00:16;;;;;;;6.72;2.58;;;6.00;95.00;;;;;;5056889;28;20032;-82
2022/04/09 03:02:42;;;;;;;6.68;2.78;;;6.10;95.00;;;;;;5074831;28;20116;-80
2022/04/09 03:05:09;;;;;;;4.40;2.67;;;6.10;95.00;;;;;;5076354;28;20016;-80
2022/04/09 03:07:35;;;;;;;5.03;2.38;;;6.00;95.10;;;;;;5072686;28;20024;-80
2022/04/09 03:10:00;;;;;;;6.55;2.30;;;6.10;95.20;;;;;;5073159;28;20025;-80
2022/04/09 03:12:26;;;;;;;5.32;2.33;;;6.10;95.00;;;;;;5069220;28;20109;-80
2022/04/09 03:14:51;;;;;;;5.90;2.17;;;6.10;95.10;;;;;;5072563;28;20489;-81
2022/04/09 03:17:17;;;;;;;9.02;2.63;;;6.10;95.20;;;;;;5077714;28;20020;-80
2022/04/09 03:19:42;;;;;;;4.70;2.00;;;6.10;95.20;;;;;;5060027;28;20411;-80
2022/04/09 03:22:08;;;;;;;6.63;3.15;;;6.10;95.40;;;;;;5050608;28;20127;-79
2022/04/09 03:24:33;;;;;;;4.65;2.90;;;6.10;95.20;;;;;;5060478;28;20020;-81
2022/04/09 03:26:59;;;;;;;6.20;2.15;;;6.10;95.10;;;;;;5068611;28;20032;-83
2022/04/09 03:29:24;;;;;;;6.00;2.75;;;6.20;95.00;;;;;;5068474;28;20025;-80
2022/04/09 03:31:50;;;;;;;8.50;3.25;;;6.20;94.90;;;;;;5073139;28;20047;-80
2022/04/09 03:34:16;;;;;;;5.20;2.67;;;6.20;95.10;;;;;;5081035;28;20032;-80
2022/04/09 03:36:42;;;;;;;4.85;2.40;;;6.20;94.90;;;;;;5083677;28;20032;-82
2022/04/09 03:39:08;;;;;;;8.73;2.20;;;6.20;95.00;;;;;;5069620;28;20461;-83
2022/04/09 03:41:33;;;;;;;5.20;2.45;;;6.30;94.80;;;;;;5068692;28;20044;-81
2022/04/09 03:43:59;;;;;;;5.53;2.40;;;6.30;94.70;;;;;;5066874;28;20029;-82
2022/04/09 03:46:24;;;;;;;5.40;2.28;;;6.20;94.70;;;;;;5074614;28;20039;-79
2022/04/09 03:48:50;;;;;;;7.70;2.33;;;6.20;94.40;;;;;;5072323;28;20522;-80
2022/04/09 03:51:16;;;;;;;5.28;2.42;;;6.30;94.40;;;;;;5056410;28;20051;-79
2022/04/09 03:53:41;;;;;;;3.75;1.67;;;6.40;94.50;;;;;;5051247;28;20033;-82
2022/04/09 03:56:06;;;;;;;7.10;2.35;;;6.30;94.40;;;;;;5068955;28;20031;-80
2022/04/09 03:58:32;;;;;;;5.35;2.97;;;6.30;94.50;;;;;;5051656;28;20162;-82
2022/04/09 04:00:58;;;;;;;3.17;1.60;;;6.30;94.50;;;;;;5068974;28;20579;-79
2022/04/09 04:03:25;;;;;;;5.50;1.90;;;6.30;94.60;;;;;;5070015;28;20484;-85
2022/04/09 04:05:51;;;;;;;6.35;2.20;;;6.30;94.80;;;;;;5080249;28;20027;-81
2022/04/09 04:08:17;;;;;;;6.75;2.00;;;6.30;94.80;;;;;;5058762;28;20025;-79
2022/04/09 04:10:42;;;;;;;5.20;1.70;;;6.30;94.80;;;;;;5068937;28;20528;-81
2022/04/09 04:13:10;;;;;;;13.52;2.33;;;6.30;94.70;;;;;;5068711;28;20053;-81
2022/04/09 04:15:35;;;;;;;4.45;2.08;;;6.30;94.70;;;;;;5068684;28;20028;-81
2022/04/09 04:18:02;;;;;;;3.90;1.40;;;6.40;94.70;;;;;;5071069;28;20021;-80
2022/04/09 04:20:28;;;;;;;5.13;1.92;;;6.40;94.70;;;;;;5054694;28;20059;-81
2022/04/09 04:22:53;;;;;;;9.25;2.08;;;6.30;94.60;;;;;;5052391;28;20036;-83
2022/04/09 04:25:20;;;;;;;5.40;1.58;;;6.40;94.30;;;;;;5068879;28;20033;-81
2022/04/09 04:27:49;;;;;;;5.07;1.50;;;6.30;93.90;;;;;;5055507;28;20033;-81
2022/04/09 04:30:15;;;;;;;7.78;1.90;;;6.40;93.80;;;;;;5073877;28;20020;-81
2022/04/09 04:32:41;;;;;;;4.88;1.40;;;6.40;93.70;;;;;;5074264;28;20028;-80
2022/04/09 04:35:07;;;;;;;5.63;2.15;;;6.40;93.50;;;;;;5079919;28;20082;-81
2022/04/09 04:37:51;;;;;;;6.75;1.63;;;6.40;93.10;;;;;;5077303;28;20028;-81
2022/04/09 04:40:16;;;;;;;7.75;1.63;;;6.40;93.20;;;;;;5056117;28;20025;-80
2022/04/09 04:42:42;;;;;;;7.25;2.13;;;6.40;93.10;;;;;;5061143;28;20036;-82
2022/04/09 04:45:10;;;;;;;3.08;1.50;;;6.40;93.10;;;;;;5081246;28;20028;-80
2022/04/09 04:47:46;;;;;;;6.45;1.55;;;6.40;93.20;;;;;;5064000;28;20024;-80
2022/04/09 04:50:13;;;;;;;3.95;0.93;;;6.50;93.10;;;;;;5053765;28;20025;-81
2022/04/09 04:52:39;;;;;;;3.28;1.48;;;6.50;93.00;;;;;;5076212;28;20110;-80
2022/04/09 04:55:05;;;;;;;1.98;1.13;;;6.50;93.10;;;;;;5064654;28;20103;-81
2022/04/09 04:57:41;;;;;;;7.75;2.70;;;6.50;93.20;;;;;;5058511;28;20028;-81
2022/04/09 05:00:08;;;;;;;14.45;6.50;;;6.50;93.10;;;;;;5048546;28;20024;-83
2022/04/09 05:02:34;;;;;;;158.50;64.30;;;6.60;93.20;;;;;;5053925;28;20929;-80
2022/04/09 05:05:01;;;;;;;146.63;66.15;;;6.60;93.10;;;;;;5061205;28;20052;-80
2022/04/09 05:07:46;;;;;;;50.53;25.67;;;6.60;92.90;;;;;;5070246;28;20403;-81
2022/04/09 05:10:13;;;;;;;20.90;6.68;;;6.60;93.10;;;;;;5070377;28;20063;-82
2022/04/09 05:12:40;;;;;;;11.07;5.05;;;6.70;93.10;;;;;;5066767;28;20017;-81
2022/04/09 05:15:07;;;;;;;9.43;3.70;;;6.80;93.10;;;;;;5068346;28;20024;-80
2022/04/09 05:17:34;;;;;;;6.20;1.67;;;6.80;92.80;;;;;;5052097;28;20173;-81
2022/04/09 05:20:02;;;;;;;5.07;1.67;;;6.90;92.90;;;;;;5057529;28;20123;-80
2022/04/09 05:22:28;;;;;;;6.25;2.60;;;6.90;93.00;;;;;;5070899;28;20032;-81
2022/04/09 05:24:54;;;;;;;9.23;2.72;;;7.00;92.90;;;;;;5068817;28;20021;-81
2022/04/09 05:27:21;;;;;;;9.50;2.38;;;7.00;92.90;;;;;;5070011;28;20058;-83
2022/04/09 05:29:46;;;;;;;5.20;3.55;;;7.10;92.90;;;;;;5066981;28;20073;-82
2022/04/09 05:32:12;;;;;;;5.95;3.38;;;7.10;92.80;;;;;;5067371;28;20484;-81
2022/04/09 05:34:37;;;;;;;6.03;4.47;;;7.10;93.00;;;;;;5069475;28;20024;-80
2022/04/09 05:37:03;;;;;;;11.32;3.78;;;7.10;92.90;;;;;;5068383;28;20036;-80
2022/04/09 05:39:29;;;;;;;10.52;3.55;;;7.10;93.30;;;;;;5044646;28;20025;-81
2022/04/09 05:41:54;;;;;;;6.70;4.45;;;7.20;93.30;;;;;;5069396;28;20631;-80
2022/04/09 05:44:20;;;;;;;4.75;3.63;;;7.10;94.00;;;;;;5069924;28;20032;-81
2022/04/09 05:46:45;;;;;;;6.53;3.63;;;7.00;94.10;;;;;;5066953;28;20028;-80
2022/04/09 05:49:11;;;;;;;8.60;4.25;;;7.10;94.10;;;;;;5069273;28;20440;-79
2022/04/09 05:51:37;;;;;;;6.40;3.92;;;7.10;94.10;;;;;;5065144;28;20038;-80
2022/04/09 05:54:03;;;;;;;7.32;4.25;;;7.10;94.20;;;;;;5050006;28;20106;-81
2022/04/09 05:56:29;;;;;;;10.63;3.33;;;7.10;94.40;;;;;;5068801;28;20032;-80
2022/04/09 05:58:55;;;;;;;6.20;3.55;;;7.10;94.70;;;;;;5051625;28;20032;-80
2022/04/09 06:01:20;;;;;;;5.32;2.70;;;7.10;94.60;;;;;;5068518;28;20112;-83
2022/04/09 06:03:46;;;;;;;6.65;3.17;;;7.00;94.40;;;;;;5068421;28;20100;-80
2022/04/09 06:06:11;;;;;;;7.28;2.78;;;6.90;94.40;;;;;;5074570;28;20123;-78
2022/04/09 06:08:37;;;;;;;4.65;3.35;;;6.90;94.90;;;;;;5070349;28;20035;-79
2022/04/09 06:11:03;;;;;;;7.68;2.50;;;7.00;94.80;;;;;;5067798;28;20387;-81
2022/04/09 06:13:29;;;;;;;6.57;2.50;;;7.00;94.90;;;;;;5068254;28;20082;-79
2022/04/09 06:15:54;;;;;;;6.68;2.80;;;7.00;94.40;;;;;;5068740;28;20040;-82
2022/04/09 06:18:20;;;;;;;6.43;2.90;;;6.90;94.70;;;;;;5050366;28;20031;-79
2022/04/09 06:20:46;;;;;;;5.43;2.78;;;6.90;94.80;;;;;;5068280;28;20062;-79
2022/04/09 06:23:12;;;;;;;6.75;3.00;;;6.90;95.00;;;;;;5049294;28;20376;-81
2022/04/09 06:25:37;;;;;;;6.35;2.90;;;7.00;95.10;;;;;;5072350;28;20037;-79
2022/04/09 06:28:03;;;;;;;3.42;2.70;;;7.00;95.10;;;;;;5073356;28;20475;-79
2022/04/09 06:30:29;;;;;;;7.32;3.55;;;7.00;94.80;;;;;;5072977;28;20024;-79
2022/04/09 06:32:54;;;;;;;9.73;2.70;;;7.00;95.00;;;;;;5071486;28;20086;-79
2022/04/09 06:35:21;;;;;;;6.95;2.35;;;7.00;95.20;;;;;;5060229;28;20423;-80
2022/04/09 06:37:47;;;;;;;5.97;2.90;;;6.90;95.50;;;;;;5052402;28;20028;-82
2022/04/09 06:40:13;;;;;;;5.15;2.33;;;7.00;95.70;;;;;;5068646;28;20025;-82
2022/04/09 06:42:39;;;;;;;6.45;2.15;;;7.10;95.70;;;;;;5052079;28;20028;-80
2022/04/09 06:45:06;;;;;;;5.72;2.28;;;7.00;95.70;;;;;;5056992;28;20028;-79
2022/04/09 06:47:34;;;;;;;5.72;2.58;;;7.10;95.50;;;;;;5067844;28;20079;-80
2022/04/09 06:50:00;;;;;;;3.53;1.90;;;7.10;95.60;;;;;;5067394;28;20056;-80
2022/04/09 06:52:25;;;;;;;5.97;3.08;;;7.20;94.90;;;;;;5067950;28;20052;-80
2022/04/09 06:54:55;;;;;;;4.53;1.75;;;7.10;94.80;;;;;;5069607;28;20029;-83
2022/04/09 06:57:21;;;;;;;7.38;1.88;;;7.20;94.90;;;;;;5069737;28;20024;-80
2022/04/09 06:59:46;;;;;;;3.90;1.77;;;7.20;95.10;;;;;;5070289;28;20016;-80
2022/04/09 07:02:12;;;;;;;11.85;2.63;;;7.20;94.40;;;;;;5074162;28;20036;-80
2022/04/09 07:04:37;;;;;;;5.10;1.70;;;7.20;94.60;;;;;;5059593;28;20024;-81
2022/04/09 07:07:03;;;;;;;7.20;1.65;;;7.20;94.30;;;;;;5072874;28;20047;-79
2022/04/09 07:09:29;;;;;;;5.10;1.65;;;7.20;94.00;;;;;;5050262;28;20135;-79
2022/04/09 07:11:55;;;;;;;4.63;1.40;;;7.20;93.90;;;;;;5068660;28;20859;-83
2022/04/09 07:14:21;;;;;;;10.18;1.65;;;7.30;94.00;;;;;;5069971;28;20052;-81
2022/04/09 07:16:47;;;;;;;5.55;1.75;;;7.30;93.60;;;;;;5067911;28;20047;-82
2022/04/09 07:19:13;;;;;;;7.53;2.63;;;7.30;93.70;;;;;;5054571;28;20115;-80
2022/04/09 07:21:38;;;;;;;4.25;1.80;;;7.30;93.40;;;;;;5073421;28;20619;-80
2022/04/09 07:24:04;;;;;;;5.97;1.80;;;7.40;93.80;;;;;;5068878;28;20095;-80
2022/04/09 07:26:30;;;;;;;3.15;1.48;;;7.50;93.20;;;;;;5068050;28;20056;-82
2022/04/09 07:28:55;;;;;;;3.88;1.55;;;7.50;93.00;;;;;;5066532;28;20032;-80
2022/04/09 07:31:21;;;;;;;4.85;1.30;;;7.60;92.50;;;;;;5067687;28;20041;-79
2022/04/09 07:33:46;;;;;;;3.53;1.50;;;7.60;92.60;;;;;;5067565;28;21536;-81
2022/04/09 07:36:12;;;;;;;6.32;1.73;;;7.80;91.30;;;;;;5048629;28;20023;-80
2022/04/09 07:38:37;;;;;;;8.75;1.52;;;7.90;91.80;;;;;;5066571;28;20028;-80
2022/04/09 07:41:03;;;;;;;2.65;1.15;;;8.00;91.10;;;;;;5050495;28;20031;-80
2022/04/09 07:43:29;;;;;;;4.97;1.58;;;8.10;90.60;;;;;;5050002;28;20028;-80
2022/04/09 07:45:55;;;;;;;4.60;1.52;;;8.10;90.70;;;;;;5058657;28;20017;-81
2022/04/09 07:48:21;;;;;;;4.78;1.30;;;8.30;90.60;;;;;;5067158;28;20091;-80
2022/04/09 07:50:46;;;;;;;3.38;1.05;;;8.50;89.90;;;;;;5069852;28;20423;-80
2022/04/09 07:53:12;;;;;;;6.93;1.25;;;8.60;89.70;;;;;;5077269;28;20021;-81
2022/04/09 07:55:38;;;;;;;2.72;1.05;;;8.70;87.20;;;;;;5075054;28;20032;-80
2022/04/09 07:58:05;;;;;;;9.70;1.42;;;8.80;87.90;;;;;;5054146;28;20028;-80
2022/04/09 08:00:31;;;;;;;4.07;1.48;;;8.80;88.50;;;;;;5070366;28;20154;-82
2022/04/09 08:02:56;;;;;;;3.13;1.20;;;8.90;88.10;;;;;;5072071;28;20491;-80
2022/04/09 08:05:22;;;;;;;2.90;1.15;;;8.90;87.60;;;;;;5075488;28;20044;-79
2022/04/09 08:07:48;;;;;;;2.45;1.08;;;8.90;86.10;;;;;;5074420;28;20036;-80
2022/04/09 08:10:14;;;;;;;5.47;1.20;;;8.80;85.30;;;;;;5069043;28;20090;-78
2022/04/09 08:12:41;;;;;;;3.88;1.20;;;8.60;86.00;;;;;;5066055;28;20054;-80
2022/04/09 08:15:08;;;;;;;4.93;1.35;;;8.70;86.50;;;;;;5052093;28;20024;-80
2022/04/09 08:17:35;;;;;;;7.22;1.17;;;8.60;87.10;;;;;;5075463;28;20035;-81
2022/04/09 08:20:01;;;;;;;5.00;1.42;;;8.60;85.80;;;;;;5064607;28;20028;-81
2022/04/09 08:22:27;;;;;;;2.08;1.15;;;8.70;86.40;;;;;;5067934;28;20054;-80
2022/04/09 08:24:52;;;;;;;3.17;0.95;;;8.70;85.90;;;;;;5070596;28;20131;-81
2022/04/09 08:27:18;;;;;;;6.57;1.08;;;8.80;86.20;;;;;;5054899;28;20111;-81
2022/04/09 08:29:44;;;;;;;3.65;0.80;;;8.80;86.50;;;;;;5067731;28;20020;-81
2022/04/09 08:32:09;;;;;;;3.78;1.40;;;8.80;85.30;;;;;;5069100;28;20765;-81
2022/04/09 08:34:35;;;;;;;2.58;0.95;;;8.90;85.30;;;;;;5073279;28;20073;-80
2022/04/09 08:37:02;;;;;;;3.08;0.95;;;8.90;85.70;;;;;;5074313;28;20044;-82
2022/04/09 08:39:27;;;;;;;2.17;1.13;;;9.00;84.70;;;;;;5052025;28;20028;-81
2022/04/09 08:41:53;;;;;;;5.07;1.20;;;9.00;84.30;;;;;;5051107;28;20470;-81
2022/04/09 08:44:19;;;;;;;2.10;1.30;;;9.00;84.50;;;;;;5073352;28;20032;-81
2022/04/09 08:46:46;;;;;;;3.65;1.38;;;9.00;85.60;;;;;;5072713;28;20133;-81
2022/04/09 08:49:12;;;;;;;4.20;1.30;;;8.90;85.30;;;;;;5055199;28;20035;-82
2022/04/09 08:51:37;;;;;;;3.08;1.23;;;9.00;84.20;;;;;;5073257;28;20037;-81
2022/04/09 08:54:04;;;;;;;3.88;1.98;;;9.20;85.60;;;;;;5054280;28;20027;-82
2022/04/09 08:56:33;;;;;;;8.88;3.67;;;9.40;84.40;;;;;;5072801;28;20105;-81
2022/04/09 08:58:59;;;;;;;4.78;1.77;;;9.50;83.10;;;;;;5055386;28;20056;-83
2022/04/09 09:01:26;;;;;;;9.10;3.08;;;9.60;84.00;;;;;;5072591;28;20137;-82
2022/04/09 09:03:52;;;;;;;5.82;2.33;;;9.80;81.90;;;;;;5055022;28;20029;-83
2022/04/09 09:06:34;;;;;;;4.53;1.75;;;9.90;82.10;;;;;;5072139;28;20047;-82
2022/04/09 09:09:02;;;;;;;5.33;2.20;;;10.10;80.60;;;;;;5073045;28;20138;-82
2022/04/09 09:11:29;;;;;;;3.67;1.20;;;10.20;80.90;;;;;;5072266;28;20263;-81
2022/04/09 09:13:57;;;;;;;5.88;2.13;;;10.30;79.60;;;;;;5072290;28;20028;-81
2022/04/09 09:16:30;;;;;;;8.38;4.45;;;10.30;78.80;;;;;;5072203;28;20036;-80
2022/04/09 09:19:02;;;;;;;3.55;1.30;;;10.40;79.60;;;;;;5072716;28;20054;-81
2022/04/09 09:21:28;;;;;;;2.22;1.30;;;10.40;79.50;;;;;;5072289;28;20029;-81
2022/04/09 09:24:09;;;;;;;2.35;1.30;;;10.30;80.10;;;;;;5054752;28;20036;-80
2022/04/09 09:26:38;;;;;;;2.10;0.80;;;9.70;83.20;;;;;;5071776;28;20052;-80
2022/04/09 09:29:03;;;;;;;5.80;1.20;;;9.40;86.00;;;;;;5071939;28;20021;-80
2022/04/09 09:31:43;;;;;;;2.97;0.90;;;9.00;87.10;;;;;;5053944;28;20085;-80
2022/04/09 09:34:13;;;;;;;2.08;0.90;;;8.80;87.40;;;;;;5072524;28;20469;-82
2022/04/09 09:36:40;;;;;;;1.27;0.90;;;8.70;88.00;;;;;;5071451;28;20063;-81
2022/04/09 09:39:07;;;;;;;5.47;1.20;;;8.60;87.60;;;;;;5072151;28;20017;-80
2022/04/09 09:41:33;;;;;;;1.98;1.13;;;8.70;87.70;;;;;;5054087;28;20536;-80
2022/04/09 09:44:06;;;;;;;3.75;1.10;;;8.70;87.10;;;;;;5072338;28;20527;-81
2022/04/09 09:46:32;;;;;;;2.67;0.95;;;8.80;86.90;;;;;;5071469;28;20020;-82
2022/04/09 09:48:58;;;;;;;1.63;0.80;;;8.80;87.10;;;;;;5072290;28;20373;-81
2022/04/09 09:51:25;;;;;;;1.98;1.30;;;8.70;87.80;;;;;;5071862;28;20487;-81
2022/04/09 09:54:06;;;;;;;1.83;1.10;;;8.80;87.90;;;;;;5054247;28;20025;-83
2022/04/09 09:56:41;;;;;;;1.55;1.17;;;8.80;87.50;;;;;;5053460;28;20028;-83
2022/04/09 09:59:11;;;;;;;2.40;1.20;;;8.60;87.90;;;;;;5054185;28;20028;-84
2022/04/09 10:01:44;;;;;;;1.63;0.90;;;8.50;89.20;;;;;;5072101;28;20526;-81
2022/04/09 10:04:12;;;;;;;1.63;0.90;;;8.30;90.50;;;;;;5071955;28;20096;-81
2022/04/09 10:06:38;;;;;;;3.33;1.48;;;8.10;91.30;;;;;;5052262;28;20055;-81
2022/04/09 10:09:06;;;;;;;1.48;0.82;;;7.90;91.10;;;;;;5053808;28;20115;-81
2022/04/09 10:11:42;;;;;;;1.23;0.90;;;7.70;92.10;;;;;;5053595;28;20032;-81
2022/04/09 10:14:10;;;;;;;2.00;1.23;;;7.60;92.10;;;;;;5072155;28;20048;-83
2022/04/09 10:16:36;;;;;;;4.82;1.08;;;7.60;93.00;;;;;;5070429;28;20028;-80
2022/04/09 10:19:04;;;;;;;4.20;1.13;;;7.60;92.60;;;;;;5071532;28;20074;-83
2022/04/09 10:21:32;;;;;;;4.32;1.77;;;7.80;92.30;;;;;;5071008;28;20136;-81
2022/04/09 10:24:00;;;;;;;1.98;1.13;;;7.90;92.50;;;;;;5052627;28;20028;-80
2022/04/09 10:26:28;;;;;;;1.95;0.77;;;8.20;91.90;;;;;;5070854;28;20031;-82
2022/04/09 10:29:07;;;;;;;2.40;1.02;;;8.40;90.50;;;;;;5071503;28;20111;-80
2022/04/09 10:31:34;;;;;;;2.13;0.85;;;8.80;87.30;;;;;;5071286;28;20097;-84
2022/04/09 10:34:00;;;;;;;1.40;0.88;;;8.90;85.00;;;;;;5071542;28;20043;-81
2022/04/09 10:36:41;;;;;;;2.60;1.00;;;8.90;84.60;;;;;;5070715;28;20027;-82
2022/04/09 10:39:36;;;;;;;1.50;0.85;;;8.90;84.90;;;;;;5053307;28;20021;-81
2022/04/09 10:42:02;;;;;;;2.95;0.70;;;9.00;84.10;;;;;;5071030;28;20211;-83
2022/04/09 10:44:48;;;;;;;2.50;0.80;;;9.10;82.40;;;;;;5070220;28;20028;-83
2022/04/09 10:47:15;;;;;;;3.45;1.27;;;9.10;84.50;;;;;;5052489;28;20036;-83
2022/04/09 10:50:05;;;;;;;2.00;1.00;;;9.10;87.60;;;;;;5070401;28;20021;-84
2022/04/09 10:52:32;;;;;;;1.58;0.95;;;8.90;88.30;;;;;;5063076;28;20033;-85
2022/04/09 10:55:20;;;;;;;3.95;1.02;;;9.00;89.50;;;;;;5070910;28;20058;-83
2022/04/09 10:57:47;;;;;;;4.88;1.17;;;9.00;88.70;;;;;;5052854;28;20024;-82
2022/04/09 11:00:26;;;;;;;1.45;1.00;;;9.10;89.10;;;;;;5052759;28;20377;-83
2022/04/09 11:03:05;;;;;;;2.17;0.98;;;9.20;89.30;;;;;;5069777;28;20024;-82
2022/04/09 11:05:30;;;;;;;4.95;1.15;;;9.40;87.90;;;;;;5070236;28;20299;-84
2022/04/09 11:08:06;;;;;;;4.28;1.13;;;9.60;87.90;;;;;;5070704;28;20468;-82
2022/04/09 11:10:32;;;;;;;2.13;1.15;;;9.70;86.20;;;;;;5070792;28;20032;-83
2022/04/09 11:12:57;;;;;;;1.40;0.80;;;9.80;86.50;;;;;;5070575;28;20153;-83
2022/04/09 11:15:23;;;;;;;2.30;0.90;;;9.90;83.90;;;;;;5069977;28;20453;-82
2022/04/09 11:17:49;;;;;;;1.38;0.60;;;9.90;83.20;;;;;;5052727;28;20024;-83
2022/04/09 11:20:16;;;;;;;3.78;0.57;;;9.90;80.80;;;;;;5070347;28;20025;-82
2022/04/09 11:22:48;;;;;;;1.00;0.63;;;9.80;77.40;;;;;;5069483;28;20106;-82
2022/04/09 11:25:27;;;;;;;3.63;0.98;;;9.90;79.10;;;;;;5070170;28;20012;-82
2022/04/09 11:28:03;;;;;;;1.38;0.60;;;10.00;79.00;;;;;;5070018;28;20032;-80
2022/04/09 11:30:29;;;;;;;3.78;1.30;;;10.00;79.80;;;;;;5071597;28;20028;-83
2022/04/09 11:32:54;;;;;;;2.72;0.90;;;10.10;78.00;;;;;;5070413;28;20111;-82
2022/04/09 11:35:24;;;;;;;1.38;0.90;;;10.10;77.80;;;;;;5069626;28;20056;-82
2022/04/09 11:37:51;;;;;;;3.40;0.90;;;10.20;76.80;;;;;;5070238;28;20024;-82
2022/04/09 11:40:19;;;;;;;2.28;0.80;;;10.20;76.80;;;;;;5051886;28;20544;-83
2022/04/09 11:42:49;;;;;;;2.05;0.80;;;10.60;79.00;;;;;;5070033;28;20090;-82
2022/04/09 11:45:26;;;;;;;2.13;1.00;;;10.90;70.50;;;;;;5069792;28;20029;-82
2022/04/09 11:47:53;;;;;;;2.08;0.80;;;11.10;72.40;;;;;;5070649;28;20078;-82
2022/04/09 11:50:19;;;;;;;1.00;0.30;;;11.40;71.70;;;;;;5070345;28;20034;-84
2022/04/09 11:52:45;;;;;;;2.35;0.60;;;11.80;70.70;;;;;;5051860;28;20036;-82
2022/04/09 11:55:12;;;;;;;1.17;0.60;;;11.80;67.60;;;;;;5069955;28;20021;-83
2022/04/09 11:57:39;;;;;;;2.15;0.68;;;11.90;65.00;;;;;;5069743;28;20029;-82
2022/04/09 12:00:06;;;;;;;2.20;1.10;;;11.90;69.20;;;;;;5051546;28;20453;-83
2022/04/09 12:02:32;;;;;;;5.07;1.33;;;12.20;71.00;;;;;;5068897;28;20068;-82
2022/04/09 12:04:58;;;;;;;1.40;0.57;;;12.50;69.80;;;;;;5051839;28;20074;-84
2022/04/09 12:07:26;;;;;;;3.75;0.90;;;12.60;68.50;;;;;;5069216;28;20025;-81
2022/04/09 12:09:53;;;;;;;1.98;1.00;;;12.60;70.20;;;;;;5070005;28;20064;-83
2022/04/09 12:12:20;;;;;;;1.95;0.77;;;12.40;68.10;;;;;;5069727;28;20016;-81
2022/04/09 12:14:57;;;;;;;3.38;0.80;;;12.10;68.20;;;;;;5070075;28;20033;-82
2022/04/09 12:17:31;;;;;;;3.40;0.73;;;11.80;70.70;;;;;;5069171;28;20054;-82
2022/04/09 12:19:56;;;;;;;1.05;0.60;;;11.70;70.10;;;;;;5069602;28;20033;-81
2022/04/09 12:22:24;;;;;;;0.88;0.70;;;11.70;68.40;;;;;;5069135;28;20029;-80
2022/04/09 12:24:54;;;;;;;2.47;0.80;;;11.60;69.00;;;;;;5069937;28;20078;-81
2022/04/09 12:27:43;;;;;;;0.75;0.60;;;11.50;70.90;;;;;;5068926;28;20028;-82
2022/04/09 12:30:09;;;;;;;3.53;0.90;;;11.40;72.10;;;;;;5069607;28;20046;-81
2022/04/09 12:32:34;;;;;;;1.08;0.60;;;11.50;73.20;;;;;;5069507;28;20069;-81
2022/04/09 12:35:08;;;;;;;0.73;0.70;;;11.50;71.90;;;;;;5070219;28;20029;-84
2022/04/09 12:37:44;;;;;;;0.50;0.50;;;11.50;71.30;;;;;;5068967;28;20021;-82
2022/04/09 12:40:18;;;;;;;0.70;0.50;;;11.50;72.20;;;;;;5072386;28;20021;-81
2022/04/09 12:42:44;;;;;;;1.10;0.50;;;11.30;71.60;;;;;;5055319;28;20064;-81
2022/04/09 12:45:15;;;;;;;0.88;0.57;;;11.10;72.00;;;;;;5055049;28;20392;-83
2022/04/09 12:47:42;;;;;;;1.58;1.20;;;11.10;72.00;;;;;;5073537;28;20028;-82
2022/04/09 12:50:23;;;;;;;2.58;0.73;;;11.10;70.10;;;;;;5055366;28;20376;-83
2022/04/09 12:52:49;;;;;;;1.25;0.57;;;11.20;71.50;;;;;;5072605;28;20020;-82
2022/04/09 12:55:16;;;;;;;1.15;0.60;;;11.30;70.30;;;;;;5054684;28;20121;-82
2022/04/09 12:57:42;;;;;;;2.35;0.57;;;11.40;68.80;;;;;;5073428;28;20036;-82
2022/04/09 13:00:08;;;;;;;1.33;0.50;;;11.40;68.80;;;;;;5072352;28;20025;-83